Time;durP1;ratioP1;P1;durP2;ratioP2;P2;SDS_P1;SDS_P2;PMS_P1;PMS_P2;Temp;Humidity;BMP_temperature;BMP_pressure;BME280_temperature;BME280_humidity;BME280_pressure;Samples;Min_cycle;Max_cycle;Signal;HPM_P1;HPM_P2
2023/09/23 00:02:09;;;;;;;0.20;0.20;;;11.50;99.90;;;;;;4973543;28;20200;-57
2023/09/23 00:04:36;;;;;;;0.30;0.30;;;11.50;99.90;;;;;;4972480;28;20744;-57
2023/09/23 00:07:04;;;;;;;0.30;0.30;;;11.40;99.90;;;;;;4977038;28;20207;-57
2023/09/23 00:09:31;;;;;;;0.53;0.53;;;11.50;99.90;;;;;;4974003;28;20235;-56
2023/09/23 00:12:00;;;;;;;1.40;0.40;;;11.40;99.90;;;;;;4986609;28;20210;-57
2023/09/23 00:14:30;;;;;;;1.03;0.47;;;11.40;99.90;;;;;;4977310;28;20211;-57
2023/09/23 00:16:58;;;;;;;0.70;0.40;;;11.50;99.90;;;;;;4980394;28;20222;-57
2023/09/23 00:19:25;;;;;;;1.60;0.57;;;11.50;99.90;;;;;;4975985;28;20225;-57
2023/09/23 00:21:52;;;;;;;0.20;0.20;;;11.50;99.90;;;;;;4975247;28;20734;-56
2023/09/23 00:24:19;;;;;;;0.13;0.13;;;11.50;99.90;;;;;;4971504;28;20249;-57
2023/09/23 00:26:48;;;;;;;0.20;0.20;;;11.50;99.90;;;;;;4972861;28;20264;-57
2023/09/23 00:29:17;;;;;;;1.07;0.13;;;11.50;99.90;;;;;;4972719;28;20258;-57
2023/09/23 00:31:45;;;;;;;0.10;0.10;;;11.40;99.90;;;;;;4973348;28;20245;-57
2023/09/23 00:34:12;;;;;;;0.20;0.20;;;11.30;99.90;;;;;;4973847;28;20200;-56
2023/09/23 00:36:39;;;;;;;1.23;0.20;;;11.40;99.90;;;;;;4973928;28;20282;-56
2023/09/23 00:39:06;;;;;;;0.20;0.20;;;11.40;99.90;;;;;;4973127;28;20250;-57
2023/09/23 00:41:33;;;;;;;0.40;0.20;;;11.50;99.90;;;;;;4973985;28;20204;-57
2023/09/23 00:44:04;;;;;;;0.50;0.20;;;11.50;99.90;;;;;;4973011;28;20205;-57
2023/09/23 00:46:31;;;;;;;0.40;0.20;;;11.50;99.90;;;;;;4978974;28;20210;-57
2023/09/23 00:49:01;;;;;;;0.10;0.10;;;11.50;99.90;;;;;;4971820;28;20219;-56
2023/09/23 00:51:30;;;;;;;0.37;0.37;;;11.50;99.90;;;;;;4973981;28;20211;-57
2023/09/23 00:53:57;;;;;;;0.10;0.10;;;11.50;99.90;;;;;;4971101;28;20558;-57
2023/09/23 00:56:25;;;;;;;1.40;0.10;;;11.50;99.90;;;;;;4970395;28;20289;-57
2023/09/23 00:58:52;;;;;;;1.67;0.10;;;11.50;99.90;;;;;;4976428;28;20216;-57
2023/09/23 01:01:21;;;;;;;0.10;0.10;;;11.50;99.90;;;;;;4972368;28;20203;-57
2023/09/23 01:03:48;;;;;;;0.10;0.10;;;11.40;99.90;;;;;;4974248;28;20219;-56
2023/09/23 01:06:17;;;;;;;0.30;0.30;;;11.40;99.90;;;;;;4970876;28;20283;-57
2023/09/23 01:08:45;;;;;;;0.03;0.03;;;11.40;99.90;;;;;;4966927;28;20224;-57
2023/09/23 01:11:12;;;;;;;0.10;0.10;;;11.30;99.90;;;;;;4973042;28;20211;-56
2023/09/23 01:13:42;;;;;;;0.10;0.10;;;11.30;99.90;;;;;;4973402;28;20210;-57
2023/09/23 01:16:12;;;;;;;0.00;0.00;;;11.30;99.90;;;;;;4978184;28;20714;-56
2023/09/23 01:18:40;;;;;;;0.00;0.00;;;11.40;99.90;;;;;;4977072;28;20829;-57
2023/09/23 01:21:08;;;;;;;0.00;0.00;;;11.30;99.90;;;;;;4971104;28;20257;-56
2023/09/23 01:23:38;;;;;;;0.00;0.00;;;11.30;99.90;;;;;;4968925;28;20234;-57
2023/09/23 01:26:05;;;;;;;0.10;0.10;;;11.30;99.90;;;;;;4972449;28;20219;-57
2023/09/23 01:28:33;;;;;;;1.03;0.10;;;11.30;99.90;;;;;;4983389;28;20227;-57
2023/09/23 01:31:02;;;;;;;0.03;0.03;;;11.30;99.90;;;;;;4983084;28;20310;-56
2023/09/23 01:33:29;;;;;;;0.10;0.10;;;11.30;99.90;;;;;;4972372;28;20216;-57
2023/09/23 01:36:02;;;;;;;0.00;0.00;;;11.20;99.90;;;;;;4984766;28;20211;-57
2023/09/23 01:38:29;;;;;;;0.00;0.00;;;11.20;99.90;;;;;;4969825;28;20273;-56
2023/09/23 01:40:57;;;;;;;0.33;0.10;;;11.20;99.90;;;;;;4977223;28;20197;-57
2023/09/23 01:43:25;;;;;;;0.10;0.10;;;11.10;99.90;;;;;;4971308;28;20238;-57
2023/09/23 01:45:55;;;;;;;0.00;0.00;;;11.20;99.90;;;;;;4971984;28;20232;-57
2023/09/23 01:48:22;;;;;;;1.60;0.70;;;11.20;99.90;;;;;;4985581;28;20230;-56
2023/09/23 01:50:49;;;;;;;0.00;0.00;;;11.10;99.90;;;;;;4980183;28;20633;-57
2023/09/23 01:53:19;;;;;;;0.00;0.00;;;11.20;99.90;;;;;;4972440;28;20203;-57
2023/09/23 01:55:46;;;;;;;0.10;0.00;;;11.20;99.90;;;;;;4979207;28;20209;-56
2023/09/23 01:58:15;;;;;;;0.00;0.00;;;11.10;99.90;;;;;;4969842;28;20225;-57
2023/09/23 02:00:42;;;;;;;0.20;0.00;;;11.10;99.90;;;;;;4976131;28;20636;-57
2023/09/23 02:03:09;;;;;;;0.10;0.10;;;11.10;99.90;;;;;;4972685;28;20210;-57
2023/09/23 02:05:36;;;;;;;0.10;0.10;;;11.10;99.90;;;;;;4972342;28;20273;-57
2023/09/23 02:08:03;;;;;;;0.97;0.10;;;11.10;99.90;;;;;;4978327;28;20261;-57
2023/09/23 02:10:30;;;;;;;0.10;0.10;;;11.20;99.90;;;;;;4979719;28;20261;-57
2023/09/23 02:12:57;;;;;;;0.13;0.00;;;11.20;99.90;;;;;;4970952;28;20211;-57
2023/09/23 02:15:25;;;;;;;0.47;0.10;;;11.10;99.90;;;;;;4979487;28;20207;-57
2023/09/23 02:17:53;;;;;;;0.10;0.00;;;11.10;99.90;;;;;;4972449;28;20590;-57
2023/09/23 02:20:21;;;;;;;0.30;0.00;;;11.10;99.90;;;;;;4977642;28;20227;-57
2023/09/23 02:22:49;;;;;;;0.00;0.00;;;11.10;99.90;;;;;;4966284;28;20220;-57
2023/09/23 02:25:17;;;;;;;0.00;0.00;;;11.10;99.90;;;;;;4971557;28;20269;-56
2023/09/23 02:27:45;;;;;;;0.13;0.00;;;11.10;99.90;;;;;;4971918;28;20686;-57
2023/09/23 02:30:13;;;;;;;0.20;0.20;;;11.10;99.90;;;;;;4971554;28;20231;-57
2023/09/23 02:32:43;;;;;;;0.60;0.00;;;11.10;99.90;;;;;;4971656;28;20203;-56
2023/09/23 02:35:11;;;;;;;0.60;0.00;;;11.10;99.90;;;;;;4972069;28;20255;-57
2023/09/23 02:37:40;;;;;;;1.17;0.10;;;11.10;99.90;;;;;;4970474;28;20726;-57
2023/09/23 02:40:11;;;;;;;1.20;0.10;;;11.10;99.90;;;;;;4971808;28;20321;-57
2023/09/23 02:42:40;;;;;;;1.80;0.57;;;11.10;99.90;;;;;;4969705;28;20207;-56
2023/09/23 02:45:10;;;;;;;0.10;0.10;;;11.10;99.90;;;;;;4970806;28;20313;-56
2023/09/23 02:47:37;;;;;;;1.20;0.10;;;11.00;99.90;;;;;;4969173;28;20219;-57
2023/09/23 02:50:09;;;;;;;0.00;0.00;;;11.00;99.90;;;;;;4972128;28;20575;-57
2023/09/23 02:52:38;;;;;;;0.60;0.10;;;10.90;99.90;;;;;;4970293;28;20230;-56
2023/09/23 02:55:08;;;;;;;2.77;0.10;;;10.90;99.90;;;;;;4968339;28;20198;-57
2023/09/23 02:57:36;;;;;;;0.10;0.10;;;10.90;99.90;;;;;;4968257;28;20203;-58
2023/09/23 03:00:15;;;;;;;0.00;0.00;;;10.90;99.90;;;;;;4968926;28;20309;-57
2023/09/23 03:02:45;;;;;;;0.70;0.10;;;11.00;99.90;;;;;;4967472;28;20199;-57
2023/09/23 03:05:16;;;;;;;0.00;0.00;;;11.00;99.90;;;;;;4970910;28;20253;-56
2023/09/23 03:07:43;;;;;;;0.23;0.00;;;11.10;99.90;;;;;;4970529;28;20290;-57
2023/09/23 03:10:12;;;;;;;0.33;0.00;;;11.00;99.90;;;;;;4964939;28;20238;-56
2023/09/23 03:12:43;;;;;;;0.07;0.07;;;11.00;99.90;;;;;;4977464;28;20553;-57
2023/09/23 03:15:15;;;;;;;0.00;0.00;;;11.00;99.90;;;;;;4980863;28;20207;-56
2023/09/23 03:17:50;;;;;;;0.23;0.13;;;11.10;99.90;;;;;;4991865;28;20238;-56
2023/09/23 03:20:21;;;;;;;0.00;0.00;;;11.10;99.90;;;;;;4978340;28;20306;-57
2023/09/23 03:22:49;;;;;;;0.00;0.00;;;11.10;99.90;;;;;;4974837;28;20207;-57
2023/09/23 03:25:20;;;;;;;0.10;0.07;;;11.00;99.90;;;;;;4991970;28;20312;-56
2023/09/23 03:27:52;;;;;;;0.10;0.10;;;11.00;99.90;;;;;;4991689;28;20221;-57
2023/09/23 03:30:19;;;;;;;0.17;0.10;;;11.00;99.90;;;;;;4988251;28;21038;-57
2023/09/23 03:32:47;;;;;;;0.07;0.07;;;11.00;99.90;;;;;;4983193;28;20760;-57
2023/09/23 03:35:17;;;;;;;0.40;0.10;;;11.00;99.90;;;;;;4980563;28;20664;-57
2023/09/23 03:37:49;;;;;;;0.00;0.00;;;11.00;99.90;;;;;;4982629;28;20203;-57
2023/09/23 03:40:20;;;;;;;0.00;0.00;;;10.90;99.90;;;;;;4975590;28;20312;-57
2023/09/23 03:42:49;;;;;;;0.00;0.00;;;11.00;99.90;;;;;;4975547;28;20594;-56
2023/09/23 03:45:18;;;;;;;0.50;0.00;;;11.00;99.90;;;;;;4975586;28;20573;-57
2023/09/23 03:47:46;;;;;;;0.00;0.00;;;10.90;99.90;;;;;;4975118;28;20607;-57
2023/09/23 03:50:13;;;;;;;0.00;0.00;;;10.80;99.90;;;;;;4974521;28;20257;-57
2023/09/23 03:52:41;;;;;;;0.10;0.00;;;10.80;99.90;;;;;;4974871;28;20289;-57
2023/09/23 03:55:11;;;;;;;0.67;0.37;;;10.80;99.90;;;;;;4975317;28;20199;-56
2023/09/23 03:57:39;;;;;;;0.10;0.10;;;10.80;99.90;;;;;;4974888;28;20212;-57
2023/09/23 04:00:14;;;;;;;0.10;0.00;;;10.80;99.90;;;;;;4975247;28;20258;-57
2023/09/23 04:02:41;;;;;;;0.20;0.00;;;10.80;99.90;;;;;;4974937;28;20211;-57
2023/09/23 04:05:08;;;;;;;0.10;0.10;;;10.80;99.90;;;;;;4974458;28;20205;-57
2023/09/23 04:07:39;;;;;;;0.50;0.10;;;10.80;99.90;;;;;;4974601;28;20217;-56
2023/09/23 04:10:10;;;;;;;0.30;0.10;;;10.80;99.90;;;;;;4974121;28;20275;-57
2023/09/23 04:12:38;;;;;;;0.20;0.10;;;10.80;99.90;;;;;;4974925;28;20630;-57
2023/09/23 04:15:09;;;;;;;0.10;0.10;;;11.00;99.90;;;;;;4975343;28;20619;-56
2023/09/23 04:17:37;;;;;;;0.10;0.10;;;11.00;99.90;;;;;;4974033;28;20577;-57
2023/09/23 04:20:08;;;;;;;1.13;0.13;;;11.00;99.90;;;;;;4974791;28;20223;-57
2023/09/23 04:22:36;;;;;;;0.30;0.10;;;11.00;99.90;;;;;;4974976;28;20586;-56
2023/09/23 04:25:04;;;;;;;0.30;0.20;;;11.00;99.90;;;;;;4974593;28;20203;-56
2023/09/23 04:27:33;;;;;;;0.63;0.10;;;11.00;99.90;;;;;;4978013;28;20649;-57
2023/09/23 04:30:02;;;;;;;1.23;0.30;;;11.00;99.90;;;;;;4974707;28;20627;-57
2023/09/23 04:32:30;;;;;;;0.33;0.10;;;11.00;99.90;;;;;;4973998;28;20215;-57
2023/09/23 04:34:57;;;;;;;0.20;0.20;;;11.00;99.90;;;;;;4966804;28;20737;-57
2023/09/23 04:37:27;;;;;;;0.30;0.20;;;11.00;99.90;;;;;;4974018;28;20195;-57
2023/09/23 04:39:54;;;;;;;1.30;0.20;;;10.90;99.90;;;;;;4974591;28;20659;-57
2023/09/23 04:42:22;;;;;;;1.13;0.10;;;10.90;99.90;;;;;;4974664;28;20298;-57
2023/09/23 04:44:51;;;;;;;0.30;0.20;;;10.90;99.90;;;;;;4973874;28;20206;-58
2023/09/23 04:47:18;;;;;;;0.20;0.20;;;10.80;99.90;;;;;;4972571;28;20237;-57
2023/09/23 04:49:45;;;;;;;3.10;0.30;;;10.80;99.90;;;;;;4973496;28;20227;-57
2023/09/23 04:52:12;;;;;;;0.83;0.20;;;10.80;99.90;;;;;;4972993;28;20203;-57
2023/09/23 04:54:39;;;;;;;0.20;0.20;;;10.80;99.90;;;;;;4974123;28;20714;-57
2023/09/23 04:57:09;;;;;;;1.50;0.20;;;10.80;99.90;;;;;;4973991;28;20200;-56
2023/09/23 04:59:36;;;;;;;2.03;0.40;;;10.80;99.90;;;;;;4973048;28;20234;-57
2023/09/23 05:02:04;;;;;;;0.10;0.10;;;10.80;99.90;;;;;;4972866;28;20247;-57
2023/09/23 05:04:32;;;;;;;0.27;0.27;;;10.80;99.90;;;;;;4974190;28;20211;-56
2023/09/23 05:07:00;;;;;;;0.37;0.10;;;10.80;99.90;;;;;;4973661;28;20300;-57
2023/09/23 05:09:31;;;;;;;1.07;0.07;;;10.80;99.90;;;;;;4973844;28;20720;-57
2023/09/23 05:11:59;;;;;;;0.10;0.07;;;10.80;99.90;;;;;;4973328;28;20235;-57
2023/09/23 05:14:30;;;;;;;0.27;0.10;;;10.80;99.90;;;;;;4972175;28;20356;-57
2023/09/23 05:16:58;;;;;;;0.10;0.10;;;10.80;99.90;;;;;;4971886;28;20687;-57
2023/09/23 05:19:31;;;;;;;0.17;0.00;;;10.80;99.90;;;;;;4973829;28;20247;-57
2023/09/23 05:21:58;;;;;;;0.00;0.00;;;10.80;99.90;;;;;;4974132;28;20247;-57
2023/09/23 05:24:26;;;;;;;0.03;0.03;;;10.80;99.90;;;;;;4973797;28;20632;-57
2023/09/23 05:26:54;;;;;;;0.10;0.10;;;10.80;99.90;;;;;;4972100;28;20598;-56
2023/09/23 05:29:22;;;;;;;1.20;0.20;;;10.80;99.90;;;;;;4972912;28;20275;-57
2023/09/23 05:31:49;;;;;;;0.20;0.20;;;10.70;99.90;;;;;;4973388;28;20211;-56
2023/09/23 05:34:16;;;;;;;0.20;0.20;;;10.80;99.90;;;;;;4973508;28;20201;-57
2023/09/23 05:36:45;;;;;;;0.20;0.20;;;10.80;99.90;;;;;;4972755;28;20223;-57
2023/09/23 05:39:13;;;;;;;0.10;0.10;;;10.80;99.90;;;;;;4973491;28;20230;-57
2023/09/23 05:41:40;;;;;;;0.10;0.10;;;10.90;99.90;;;;;;4980211;28;20204;-56
2023/09/23 05:44:08;;;;;;;0.10;0.10;;;10.90;99.90;;;;;;4968134;28;20391;-56
2023/09/23 05:46:37;;;;;;;0.10;0.10;;;10.90;99.90;;;;;;4975040;28;20226;-56
2023/09/23 05:49:05;;;;;;;0.80;0.10;;;10.90;99.90;;;;;;4974173;28;20223;-57
2023/09/23 05:51:33;;;;;;;1.27;0.30;;;10.80;99.90;;;;;;4971154;28;20579;-57
2023/09/23 05:54:02;;;;;;;0.07;0.07;;;10.80;99.90;;;;;;4973191;28;20628;-56
2023/09/23 05:56:29;;;;;;;0.20;0.20;;;10.80;99.90;;;;;;4971973;28;20207;-56
2023/09/23 05:58:56;;;;;;;0.40;0.10;;;10.80;99.90;;;;;;4972213;28;20269;-56
2023/09/23 06:01:23;;;;;;;0.30;0.13;;;10.80;99.90;;;;;;4974945;28;20261;-56
2023/09/23 06:03:50;;;;;;;0.93;0.17;;;10.80;99.90;;;;;;4974211;28;20205;-56
2023/09/23 06:06:17;;;;;;;0.37;0.20;;;10.80;99.90;;;;;;4972857;28;20216;-56
2023/09/23 06:08:47;;;;;;;0.10;0.00;;;10.90;99.90;;;;;;4972007;28;20230;-57
2023/09/23 06:11:16;;;;;;;0.10;0.10;;;10.80;99.90;;;;;;4972167;28;20203;-57
2023/09/23 06:13:43;;;;;;;0.27;0.13;;;10.70;99.90;;;;;;4972621;28;20268;-57
2023/09/23 06:16:10;;;;;;;0.10;0.10;;;10.70;99.90;;;;;;4972433;28;20264;-56
2023/09/23 06:18:37;;;;;;;0.40;0.10;;;10.70;99.90;;;;;;4972574;28;20318;-57
2023/09/23 06:21:06;;;;;;;0.10;0.10;;;10.80;99.90;;;;;;4972850;28;20682;-56
2023/09/23 06:23:33;;;;;;;0.50;0.10;;;10.80;99.90;;;;;;4972572;28;20213;-56
2023/09/23 06:26:02;;;;;;;0.00;0.00;;;10.80;99.90;;;;;;4964526;28;20220;-57
2023/09/23 06:28:31;;;;;;;0.10;0.10;;;10.80;99.90;;;;;;4971916;28;20596;-57
2023/09/23 06:30:58;;;;;;;0.00;0.00;;;10.80;99.90;;;;;;4972444;28;20755;-57
2023/09/23 06:33:25;;;;;;;0.10;0.10;;;10.90;99.90;;;;;;4972653;28;20269;-56
2023/09/23 06:35:52;;;;;;;0.20;0.10;;;10.90;99.90;;;;;;4976977;28;20207;-57
2023/09/23 06:38:19;;;;;;;0.50;0.10;;;11.00;99.90;;;;;;4971770;28;20255;-57
2023/09/23 06:40:46;;;;;;;0.00;0.00;;;10.90;99.90;;;;;;4971647;28;20265;-57
2023/09/23 06:43:13;;;;;;;1.17;0.10;;;10.90;99.90;;;;;;4968271;28;20624;-56
2023/09/23 06:45:41;;;;;;;0.10;0.10;;;10.90;99.90;;;;;;4968844;28;20751;-57
2023/09/23 06:48:08;;;;;;;0.10;0.10;;;11.00;99.90;;;;;;4971124;28;20199;-56
2023/09/23 06:50:35;;;;;;;1.50;0.07;;;11.00;99.90;;;;;;4970840;28;20202;-57
2023/09/23 06:53:02;;;;;;;0.30;0.23;;;11.00;99.90;;;;;;4971432;28;20725;-56
2023/09/23 06:55:29;;;;;;;1.70;0.20;;;11.00;99.90;;;;;;4967995;28;20694;-56
2023/09/23 06:57:56;;;;;;;0.57;0.20;;;11.00;99.90;;;;;;4970779;28;20254;-58
2023/09/23 07:00:24;;;;;;;0.00;0.00;;;11.00;99.90;;;;;;4970828;28;20703;-57
2023/09/23 07:02:52;;;;;;;0.90;0.10;;;11.10;99.90;;;;;;4971441;28;20207;-57
2023/09/23 07:05:19;;;;;;;0.83;0.10;;;11.10;99.90;;;;;;4972447;28;20690;-57
2023/09/23 07:07:47;;;;;;;0.13;0.13;;;11.20;99.90;;;;;;4973029;28;20246;-56
2023/09/23 07:10:14;;;;;;;0.17;0.03;;;11.10;99.90;;;;;;4975376;28;20219;-56
2023/09/23 07:12:41;;;;;;;0.40;0.40;;;11.20;99.90;;;;;;4975849;28;20611;-57
2023/09/23 07:15:09;;;;;;;0.40;0.20;;;11.20;99.90;;;;;;4973729;28;20610;-57
2023/09/23 07:17:36;;;;;;;0.10;0.10;;;11.20;99.90;;;;;;4973785;28;20203;-57
2023/09/23 07:20:05;;;;;;;0.10;0.10;;;11.30;99.90;;;;;;4975050;28;20232;-57
2023/09/23 07:22:33;;;;;;;0.87;0.10;;;11.40;99.90;;;;;;4976250;28;20203;-57
2023/09/23 07:25:00;;;;;;;0.10;0.10;;;11.40;99.90;;;;;;4968169;28;20657;-57
2023/09/23 07:27:28;;;;;;;0.10;0.10;;;11.50;99.90;;;;;;4975439;28;20233;-57
2023/09/23 07:29:55;;;;;;;2.57;0.10;;;11.60;99.90;;;;;;4975568;28;20738;-57
2023/09/23 07:32:22;;;;;;;0.13;0.13;;;11.60;99.90;;;;;;4975773;28;20203;-58
2023/09/23 07:34:49;;;;;;;1.03;0.00;;;11.60;99.90;;;;;;4975442;28;20888;-57
2023/09/23 07:37:18;;;;;;;0.10;0.10;;;11.60;99.90;;;;;;4975282;28;20739;-56
2023/09/23 07:39:45;;;;;;;1.50;0.10;;;11.70;99.90;;;;;;4975470;28;20239;-56
2023/09/23 07:42:12;;;;;;;0.03;0.03;;;11.80;99.90;;;;;;4975744;28;20314;-56
2023/09/23 07:44:39;;;;;;;0.43;0.10;;;11.90;99.90;;;;;;4972193;28;20205;-57
2023/09/23 07:47:07;;;;;;;2.57;0.20;;;12.10;99.90;;;;;;4970549;28;20277;-57
2023/09/23 07:49:35;;;;;;;0.10;0.10;;;12.20;99.90;;;;;;4974260;28;20220;-56
2023/09/23 07:52:02;;;;;;;0.77;0.10;;;12.40;99.90;;;;;;4967078;28;20207;-57
2023/09/23 07:54:35;;;;;;;0.17;0.00;;;12.60;99.90;;;;;;4973682;28;20610;-57
2023/09/23 07:57:02;;;;;;;0.10;0.10;;;12.80;99.90;;;;;;4971256;28;20196;-57
2023/09/23 07:59:31;;;;;;;0.93;0.30;;;12.90;99.90;;;;;;4967977;28;20234;-57
2023/09/23 08:01:58;;;;;;;0.40;0.00;;;13.00;99.90;;;;;;4974329;28;20734;-57
2023/09/23 08:04:25;;;;;;;0.10;0.10;;;13.20;99.90;;;;;;4977595;28;20207;-57
2023/09/23 08:06:51;;;;;;;0.60;0.10;;;13.20;99.90;;;;;;4974646;28;20228;-57
2023/09/23 08:09:18;;;;;;;0.10;0.10;;;13.30;99.90;;;;;;4972549;28;20217;-57
2023/09/23 08:11:47;;;;;;;0.43;0.10;;;13.30;99.90;;;;;;4974056;28;20207;-57
2023/09/23 08:14:14;;;;;;;0.10;0.10;;;13.20;99.90;;;;;;4973165;28;20732;-57
2023/09/23 08:16:41;;;;;;;0.93;0.00;;;13.10;99.90;;;;;;4974568;28;20208;-57
2023/09/23 08:19:07;;;;;;;1.03;0.10;;;13.10;99.90;;;;;;4973003;28;20220;-56
2023/09/23 08:21:34;;;;;;;0.00;0.00;;;13.00;99.90;;;;;;4973437;28;20204;-57
2023/09/23 08:24:01;;;;;;;0.10;0.10;;;12.70;99.90;;;;;;4974611;28;20207;-57
2023/09/23 08:26:29;;;;;;;0.20;0.10;;;12.70;99.90;;;;;;4973684;28;20623;-57
2023/09/23 08:28:57;;;;;;;0.27;0.10;;;12.60;99.90;;;;;;4974457;28;20230;-57
2023/09/23 08:31:24;;;;;;;0.10;0.10;;;12.60;99.90;;;;;;4975064;28;20228;-57
2023/09/23 08:33:51;;;;;;;0.10;0.10;;;12.70;99.90;;;;;;4974579;28;20258;-57
2023/09/23 08:36:18;;;;;;;0.30;0.10;;;12.70;99.90;;;;;;4971175;28;20259;-57
2023/09/23 08:38:45;;;;;;;0.23;0.07;;;12.60;99.90;;;;;;4970775;28;20235;-57
2023/09/23 08:41:16;;;;;;;1.43;0.60;;;12.60;99.90;;;;;;4973799;28;20270;-57
2023/09/23 08:43:44;;;;;;;0.10;0.10;;;12.50;99.90;;;;;;4974601;28;20238;-57
2023/09/23 08:46:16;;;;;;;1.07;0.10;;;12.40;99.90;;;;;;4972367;28;20219;-57
2023/09/23 08:48:44;;;;;;;0.27;0.00;;;12.40;99.90;;;;;;4971702;28;20235;-57
2023/09/23 08:51:13;;;;;;;0.10;0.10;;;12.40;99.90;;;;;;4974999;28;20203;-57
2023/09/23 08:53:40;;;;;;;0.20;0.20;;;12.40;99.90;;;;;;4980853;28;20214;-57
2023/09/23 08:56:08;;;;;;;0.20;0.10;;;12.40;99.90;;;;;;4973789;28;20205;-57
2023/09/23 08:58:35;;;;;;;0.40;0.20;;;12.40;99.90;;;;;;4973254;28;20783;-57
2023/09/23 09:01:02;;;;;;;0.13;0.10;;;12.50;99.90;;;;;;4963898;28;20251;-57
2023/09/23 09:03:31;;;;;;;1.00;0.10;;;12.50;99.90;;;;;;4981043;28;20203;-57
2023/09/23 09:05:58;;;;;;;0.10;0.10;;;12.50;99.90;;;;;;4974064;28;20208;-57
2023/09/23 09:08:26;;;;;;;0.10;0.10;;;12.50;99.90;;;;;;4980750;28;20231;-57
2023/09/23 09:10:53;;;;;;;0.10;0.10;;;12.60;99.90;;;;;;4974269;28;20239;-57
2023/09/23 09:13:20;;;;;;;0.00;0.00;;;12.60;99.90;;;;;;4974114;28;20205;-57
2023/09/23 09:15:47;;;;;;;0.10;0.10;;;12.70;99.90;;;;;;4971438;28;20294;-56
2023/09/23 09:18:14;;;;;;;0.20;0.20;;;12.80;99.90;;;;;;4974323;28;20247;-57
2023/09/23 09:20:42;;;;;;;1.17;0.10;;;12.90;99.90;;;;;;4978932;28;20219;-56
2023/09/23 09:23:14;;;;;;;0.20;0.20;;;12.90;99.90;;;;;;4972437;28;20254;-57
2023/09/23 09:25:47;;;;;;;0.10;0.10;;;12.90;99.90;;;;;;4971524;28;20207;-57
2023/09/23 09:28:16;;;;;;;0.27;0.20;;;13.00;99.90;;;;;;4972978;28;20227;-56
2023/09/23 09:30:45;;;;;;;0.17;0.10;;;13.10;99.90;;;;;;4970983;28;20231;-56
2023/09/23 09:33:16;;;;;;;0.23;0.23;;;13.40;99.90;;;;;;4970991;28;20208;-56
2023/09/23 09:35:44;;;;;;;0.10;0.10;;;13.60;99.90;;;;;;4969973;28;20207;-56
2023/09/23 09:38:14;;;;;;;0.30;0.30;;;13.50;99.90;;;;;;4965123;28;20201;-56
2023/09/23 09:40:41;;;;;;;0.20;0.20;;;13.70;99.90;;;;;;4970609;28;20720;-56
2023/09/23 09:43:09;;;;;;;0.20;0.20;;;13.80;99.90;;;;;;4964800;28;20208;-57
2023/09/23 09:45:40;;;;;;;0.10;0.10;;;13.70;99.90;;;;;;4973485;28;20637;-57
2023/09/23 09:48:09;;;;;;;0.20;0.20;;;13.80;99.90;;;;;;4970985;28;20306;-56
2023/09/23 09:50:39;;;;;;;0.27;0.13;;;13.90;99.90;;;;;;4965657;28;20213;-56
2023/09/23 09:53:08;;;;;;;0.40;0.40;;;14.00;99.90;;;;;;4964412;28;20271;-56
2023/09/23 09:55:36;;;;;;;0.20;0.20;;;14.00;99.90;;;;;;4969212;28;20207;-56
2023/09/23 09:58:03;;;;;;;0.30;0.30;;;14.00;99.90;;;;;;4968429;28;20264;-56
2023/09/23 10:00:30;;;;;;;0.10;0.10;;;14.20;99.90;;;;;;4972276;28;20247;-56
2023/09/23 10:03:02;;;;;;;0.10;0.10;;;14.30;99.90;;;;;;4979255;28;20592;-56
2023/09/23 10:05:33;;;;;;;0.10;0.10;;;14.30;99.90;;;;;;4972965;28;20219;-56
2023/09/23 10:08:09;;;;;;;0.20;0.20;;;14.50;99.90;;;;;;4971765;28;20631;-56
2023/09/23 10:10:39;;;;;;;0.13;0.13;;;14.40;99.90;;;;;;4972974;28;20235;-57
2023/09/23 10:13:09;;;;;;;0.00;0.00;;;14.30;99.90;;;;;;4972736;28;20250;-56
2023/09/23 10:15:37;;;;;;;0.10;0.10;;;14.20;99.90;;;;;;4972618;28;20676;-56
2023/09/23 10:18:10;;;;;;;0.83;0.20;;;14.10;99.90;;;;;;4965165;28;20247;-56
2023/09/23 10:20:42;;;;;;;0.53;0.53;;;14.00;99.90;;;;;;4972701;28;20267;-56
2023/09/23 10:23:11;;;;;;;0.10;0.10;;;14.20;99.90;;;;;;4972845;28;20256;-56
2023/09/23 10:25:42;;;;;;;0.30;0.27;;;14.20;99.90;;;;;;4971614;28;20215;-56
2023/09/23 10:28:20;;;;;;;0.20;0.20;;;14.40;99.90;;;;;;4971310;28;20780;-56
2023/09/23 10:30:57;;;;;;;0.40;0.20;;;14.50;99.90;;;;;;4970226;28;20291;-56
2023/09/23 10:33:26;;;;;;;1.03;0.20;;;14.40;99.90;;;;;;4975870;28;20654;-57
2023/09/23 10:35:56;;;;;;;0.87;0.17;;;14.50;99.90;;;;;;4970722;28;20217;-56
2023/09/23 10:38:23;;;;;;;0.10;0.10;;;14.50;99.90;;;;;;4975678;28;20234;-57
2023/09/23 10:40:54;;;;;;;0.10;0.10;;;14.50;99.90;;;;;;4982269;28;20201;-56
2023/09/23 10:43:22;;;;;;;0.10;0.10;;;14.50;99.90;;;;;;4979218;28;20208;-56
2023/09/23 10:45:49;;;;;;;0.33;0.33;;;14.70;99.90;;;;;;4969692;28;20287;-56
2023/09/23 10:48:17;;;;;;;0.20;0.20;;;14.60;99.90;;;;;;4978101;28;20672;-57
2023/09/23 10:50:45;;;;;;;1.50;1.00;;;14.80;99.90;;;;;;4977562;28;20211;-57
2023/09/23 10:53:13;;;;;;;0.37;0.10;;;14.90;99.90;;;;;;4973011;28;20295;-57
2023/09/23 10:55:40;;;;;;;0.83;0.83;;;15.10;99.90;;;;;;4968909;28;20251;-57
2023/09/23 10:58:09;;;;;;;0.10;0.10;;;15.20;99.90;;;;;;4967744;28;20201;-57
2023/09/23 11:00:37;;;;;;;0.10;0.10;;;15.30;99.90;;;;;;4969381;28;20204;-57
2023/09/23 11:03:09;;;;;;;0.10;0.10;;;15.20;99.90;;;;;;4964342;28;20291;-57
2023/09/23 11:05:38;;;;;;;0.10;0.10;;;15.20;99.90;;;;;;4972491;28;20289;-57
2023/09/23 11:08:06;;;;;;;0.20;0.20;;;15.10;99.90;;;;;;4970435;28;20216;-57
2023/09/23 11:10:34;;;;;;;0.13;0.13;;;15.30;99.90;;;;;;4965696;28;20201;-57
2023/09/23 11:13:04;;;;;;;0.20;0.20;;;15.40;99.90;;;;;;4967289;28;20284;-57
2023/09/23 11:15:33;;;;;;;0.25;0.25;;;15.60;99.90;;;;;;4969061;28;20417;-56
2023/09/23 11:18:07;;;;;;;0.27;0.20;;;15.60;99.90;;;;;;4970943;28;20208;-57
2023/09/23 11:20:35;;;;;;;0.10;0.10;;;15.80;99.90;;;;;;4964489;28;20212;-57
2023/09/23 11:23:05;;;;;;;0.10;0.10;;;15.90;99.90;;;;;;4970176;28;20291;-57
2023/09/23 11:25:36;;;;;;;0.20;0.20;;;15.90;99.90;;;;;;4970682;28;20205;-61
2023/09/23 11:28:03;;;;;;;1.20;0.10;;;15.80;99.90;;;;;;4970122;28;20227;-57
2023/09/23 11:30:33;;;;;;;0.27;0.10;;;15.90;99.90;;;;;;4967387;28;20233;-67
2023/09/23 11:33:01;;;;;;;0.20;0.20;;;15.80;99.90;;;;;;4971219;28;20204;-65
2023/09/23 11:35:28;;;;;;;0.30;0.13;;;15.90;99.90;;;;;;4974500;28;20275;-62
2023/09/23 11:37:55;;;;;;;0.10;0.10;;;16.00;99.90;;;;;;4969161;28;20216;-64
2023/09/23 11:40:23;;;;;;;0.10;0.10;;;16.10;99.90;;;;;;4969566;28;20750;-64
2023/09/23 11:42:51;;;;;;;0.70;0.20;;;16.10;99.90;;;;;;4970471;28;20307;-63
2023/09/23 11:45:20;;;;;;;0.10;0.10;;;16.40;99.90;;;;;;4970849;28;20291;-64
2023/09/23 11:47:48;;;;;;;1.10;0.20;;;16.60;99.90;;;;;;4975685;28;20235;-63
2023/09/23 11:50:17;;;;;;;0.10;0.10;;;16.60;99.90;;;;;;4970871;28;20221;-65
2023/09/23 11:52:44;;;;;;;0.20;0.20;;;16.70;99.90;;;;;;4976148;28;20205;-66
2023/09/23 11:55:12;;;;;;;0.13;0.13;;;16.90;99.90;;;;;;4974884;28;20278;-65
2023/09/23 11:57:40;;;;;;;0.27;0.20;;;17.00;99.90;;;;;;4974707;28;20204;-62
2023/09/23 12:00:09;;;;;;;0.70;0.13;;;17.20;99.90;;;;;;4974346;28;20267;-67
2023/09/23 12:02:37;;;;;;;0.53;0.20;;;17.30;99.90;;;;;;4975027;28;20212;-67
2023/09/23 12:05:06;;;;;;;0.33;0.10;;;17.50;99.90;;;;;;4979923;28;20220;-64
2023/09/23 12:07:34;;;;;;;0.43;0.10;;;17.70;99.90;;;;;;4980890;28;20204;-64
2023/09/23 12:10:03;;;;;;;0.47;0.10;;;17.80;99.90;;;;;;4983301;28;20247;-65
2023/09/23 12:12:30;;;;;;;0.10;0.10;;;17.80;99.90;;;;;;4986531;28;20231;-65
2023/09/23 12:14:57;;;;;;;0.10;0.10;;;17.80;99.90;;;;;;4980372;28;20689;-64
2023/09/23 12:17:24;;;;;;;0.73;0.13;;;17.80;99.90;;;;;;4976831;28;20204;-66
2023/09/23 12:19:51;;;;;;;0.23;0.10;;;17.70;99.90;;;;;;4973908;28;20224;-68
2023/09/23 12:22:20;;;;;;;0.77;0.77;;;17.60;99.90;;;;;;4984583;28;20231;-66
2023/09/23 12:24:49;;;;;;;0.20;0.10;;;17.60;99.90;;;;;;4976584;28;20647;-67
2023/09/23 12:27:16;;;;;;;0.20;0.20;;;17.60;99.90;;;;;;4985079;28;20201;-66
2023/09/23 12:29:42;;;;;;;0.30;0.10;;;17.30;99.90;;;;;;4987333;28;20224;-66
2023/09/23 12:32:10;;;;;;;0.10;0.10;;;17.50;99.90;;;;;;4986273;28;20192;-67
2023/09/23 12:34:37;;;;;;;0.10;0.10;;;17.40;99.90;;;;;;4981607;28;20216;-64
2023/09/23 12:37:04;;;;;;;0.10;0.10;;;17.30;99.90;;;;;;4981365;28;20259;-64
2023/09/23 12:39:32;;;;;;;0.10;0.10;;;17.50;99.90;;;;;;4985972;28;20231;-65
2023/09/23 12:42:01;;;;;;;0.40;0.40;;;17.50;99.90;;;;;;4974223;28;21458;-64
2023/09/23 12:44:34;;;;;;;0.40;0.10;;;17.30;99.90;;;;;;4980940;28;20287;-66
2023/09/23 12:47:02;;;;;;;0.10;0.10;;;17.10;99.90;;;;;;4973220;28;20204;-65
2023/09/23 12:49:32;;;;;;;0.20;0.20;;;17.00;99.90;;;;;;4980596;28;20287;-67
2023/09/23 12:51:59;;;;;;;0.47;0.47;;;17.00;99.90;;;;;;4973513;28;20208;-65
2023/09/23 12:54:26;;;;;;;0.20;0.20;;;16.90;99.90;;;;;;4975131;28;20259;-66